Date,TemperatureHighF,TemperatureAvgF,TemperatureLowF,DewpointHighF,DewpointAvgF,DewpointLowF,HumidityHigh,HumidityAvg,HumidityLow,PressureMaxIn,PressureMinIn,WindSpeedMaxMPH,WindSpeedAvgMPH,GustSpeedMaxMPH,PrecipitationSumIn
2013-1-1,47.3,47.3,47.3,31.5,31.5,31.5,54,54,54,30.00,30.00,2,2,2,0.00
2013-1-2,47.3,47.3,47.3,31.5,31.5,31.5,54,54,54,30.00,30.00,2,2,2,0.00
2013-1-3,47.3,47.3,47.3,31.5,31.5,31.5,54,54,54,30.00,30.00,2,2,2,0.00
2013-1-4,47.3,47.3,47.3,31.5,31.5,31.5,54,54,54,30.00,30.00,2,2,2,0.00
2013-1-5,47.3,47.3,47.3,31.5,31.5,31.5,54,54,54,30.00,30.00,2,2,2,0.00
2013-1-6,47.3,47.3,47.3,31.5,31.5,31.5,54,54,54,30.00,30.00,2,2,2,0.00
2013-1-7,56.8,55.2,47.3,53.9,52.2,31.5,98,90,54,30.00,29.65,6,5,6,0.00
2013-1-8,48.7,48.7,48.7,48.2,48.2,48.2,98,98,98,29.91,29.91,2,2,2,0.00
2013-1-9,55.4,48.7,39.2,48.2,47.9,21.1,98,97,28,29.91,29.62,3,0,4,0.00
2013-1-10,56.8,49.8,38.1,36.6,27.7,14.6,60,43,28,29.94,29.80,15,4,15,0.00
2013-1-11,68.4,57.6,50.2,59.2,49.8,36.0,100,78,45,29.80,29.56,25,5,25,0.04
2013-1-12,63.7,54.2,48.7,56.8,44.3,35.8,100,72,45,29.80,29.59,16,4,16,0.04
2013-1-13,64.8,54.0,47.7,47.1,39.8,34.1,89,61,35,30.00,29.77,10,5,10,0.00
2013-1-14,62.6,55.3,51.6,49.5,43.5,39.5,83,65,53,30.06,29.94,22,5,22,0.00
2013-1-15,64.0,57.7,53.2,57.6,50.8,42.0,100,79,46,30.03,29.80,26,8,26,0.00
2013-1-16,60.6,56.8,51.1,57.6,50.6,38.7,100,81,51,29.80,29.47,38,13,38,0.63
2013-1-17,63.0,56.8,50.9,54.6,43.9,35.8,87,63,41,29.59,29.41,30,9,30,0.00
2013-1-18,59.2,54.9,48.0,55.2,46.3,33.7,100,74,48,29.44,29.24,37,13,37,0.13
2013-1-19,60.6,52.2,47.7,41.0,36.1,32.1,74,55,38,29.62,29.29,17,6,17,0.00
2013-1-20,71.2,58.8,49.1,58.4,47.0,37.1,99,68,33,29.71,29.59,21,5,21,0.00
2013-1-21,66.6,60.3,55.8,60.3,52.9,40.8,100,80,40,29.68,29.41,28,10,28,0.00
2013-1-22,67.3,59.4,52.9,56.5,46.8,37.0,97,65,37,29.59,29.41,21,5,21,0.00
2013-1-23,64.8,57.1,52.3,47.5,40.6,34.2,73,55,35,29.74,29.56,17,5,17,0.00
2013-1-24,66.4,57.1,49.6,57.9,48.9,39.6,100,76,49,29.74,29.35,33,11,33,0.08
2013-1-25,63.0,53.8,49.6,54.0,45.7,37.1,100,75,41,29.44,29.26,40,10,40,0.41
2013-1-26,62.6,53.0,47.3,50.6,46.6,39.9,99,81,47,29.44,29.18,18,5,18,0.42
2013-1-27,55.8,48.9,46.6,47.3,43.8,38.6,100,84,58,29.68,29.41,15,5,15,0.00
2013-1-28,59.4,51.2,45.0,47.4,39.3,33.7,91,65,45,29.77,29.65,14,3,14,0.00
2013-1-29,54.5,48.9,44.8,39.1,35.7,32.4,72,60,47,29.85,29.74,16,5,16,0.00
2013-1-30,59.0,52.6,50.5,37.9,29.0,22.2,48,40,32,29.77,29.71,8,2,8,0.00
2013-1-31,65.3,54.8,46.6,41.3,33.0,21.8,55,44,29,29.77,29.59,28,5,28,0.00
2013-2-1,63.5,53.7,44.4,46.2,31.6,22.4,81,45,27,29.83,29.65,19,5,19,0.00
2013-2-2,67.5,57.6,48.9,58.5,47.9,33.1,100,72,38,29.68,29.53,18,6,18,0.00
2013-2-3,67.5,60.6,57.9,59.2,55.7,46.0,100,86,48,29.71,29.53,38,18,38,0.00
2013-2-4,70.2,61.2,57.6,60.5,54.4,43.7,100,81,41,29.74,29.68,16,6,16,0.00
2013-2-5,67.5,59.7,54.0,57.6,48.6,39.8,96,69,38,29.77,29.59,14,5,14,0.00
2013-2-6,67.8,57.3,49.6,58.4,48.4,42.3,100,74,44,29.56,29.41,13,3,14,0.00
2013-2-7,65.1,56.8,51.3,53.9,48.2,41.7,100,74,46,29.50,29.29,52,14,52,0.17
2013-2-8,60.4,54.6,49.8,47.8,37.8,32.5,76,54,41,29.50,29.29,16,6,16,0.00
2013-2-9,63.3,54.9,47.1,39.6,35.3,31.6,70,48,32,29.65,29.50,17,5,17,0.00
2013-2-10,63.0,54.2,48.7,41.6,34.7,30.3,63,49,32,29.65,29.53,10,3,10,0.00
2013-2-11,57.7,50.8,46.9,38.5,31.0,24.9,71,48,31,29.80,29.50,28,8,28,0.00
2013-2-12,63.3,53.9,45.1,46.7,37.7,28.1,72,55,32,29.83,29.74,21,7,21,0.00
2013-2-13,57.7,53.9,47.5,53.9,47.2,39.4,100,79,53,29.77,29.62,31,9,31,0.58
2013-2-14,55.4,53.1,50.0,49.6,46.9,41.7,93,80,64,29.68,29.59,23,8,23,0.00
2013-2-20,49.5,49.5,49.5,48.4,48.4,48.4,96,96,96,29.59,29.59,2,1,2,0.13
2013-2-21,48.9,48.9,48.9,47.8,47.8,47.8,96,96,96,29.74,29.74,1,1,1,0.21
2013-2-22,63.9,52.0,48.4,59.3,49.3,40.8,100,91,75,29.74,29.32,18,4,18,1.84
2013-2-23,68.4,57.6,49.8,62.3,48.4,38.1,100,75,36,29.80,29.47,16,3,16,0.00
2013-2-24,60.3,55.3,52.2,60.0,52.2,45.2,100,90,73,29.85,29.77,17,4,17,0.00
2013-2-25,59.5,59.5,59.5,59.3,59.2,59.0,99,99,98,29.77,29.77,15,8,15,0.00
2013-2-26,69.8,60.4,52.2,60.1,47.7,37.5,100,67,33,29.83,29.71,20,4,20,0.00
2013-2-27,52.3,51.4,50.7,43.8,42.6,40.4,76,72,65,29.83,29.77,6,1,6,0.00
2013-3-5,51.3,51.3,51.3,36.1,36.1,36.1,56,56,56,29.80,29.80,0,0,0,0.00
2013-3-6,51.3,51.3,51.3,36.1,36.1,36.1,56,56,56,29.80,29.80,0,0,0,0.00
2013-3-7,51.3,51.3,51.3,36.1,36.1,36.1,56,56,56,29.80,29.80,0,0,0,0.00
2013-3-8,51.3,51.3,51.3,36.1,36.1,36.1,56,56,56,29.80,29.80,0,0,0,0.00
2013-3-9,59.0,52.1,51.3,36.1,35.6,31.4,56,54,35,30.09,29.80,0,0,0,0.00
2013-3-10,59.0,59.0,59.0,31.4,31.4,31.4,35,35,35,30.09,30.09,0,0,0,0.00
2013-3-11,59.0,59.0,59.0,31.4,31.4,31.4,35,35,35,30.09,30.09,0,0,0,0.00
2013-3-12,59.0,59.0,59.0,31.4,31.4,31.4,35,35,35,30.09,30.09,0,0,0,0.00
2013-3-13,59.0,59.0,59.0,31.4,31.4,31.4,35,35,35,30.09,30.09,0,0,0,0.00
2013-3-14,59.0,59.0,59.0,31.4,31.4,31.4,35,35,35,30.09,30.09,0,0,0,0.00
2013-3-15,59.0,59.0,59.0,31.4,31.4,31.4,35,35,35,30.09,30.09,0,0,0,0.00
2013-3-16,59.0,59.0,59.0,31.4,31.4,31.4,35,35,35,30.09,30.09,0,0,0,0.00
2013-3-17,59.0,59.0,59.0,31.4,31.4,31.4,35,35,35,30.09,30.09,0,0,0,0.00
2013-3-18,59.0,59.0,59.0,31.4,31.4,31.4,35,35,35,30.09,30.09,0,0,0,0.00
2013-3-19,59.0,59.0,59.0,31.4,31.4,31.4,35,35,35,30.09,30.09,0,0,0,0.00
2013-3-20,59.0,59.0,59.0,31.4,31.4,31.4,35,35,35,30.09,30.09,0,0,0,0.00
2013-3-21,69.4,59.5,59.0,46.6,32.1,31.4,44,35,35,30.09,29.50,4,0,0,0.04
2013-3-22,73.2,65.5,54.5,49.4,38.2,26.5,43,37,29,29.53,29.35,32,12,32,0.00
2013-3-23,70.0,57.3,48.0,39.1,29.8,18.0,57,36,25,29.74,29.53,21,5,21,0.00
2013-3-24,68.4,58.6,50.4,54.6,44.9,38.1,90,61,43,29.77,29.65,31,6,31,0.00
2013-3-25,68.9,60.9,56.3,59.9,50.6,42.3,100,70,43,29.71,29.38,34,10,34,0.00
2013-3-26,59.0,58.0,57.0,59.0,57.9,56.4,100,100,98,29.38,29.32,15,6,15,0.00
2013-3-27,62.2,60.6,59.4,46.5,45.2,43.3,60,57,54,29.62,29.32,10,4,10,0.00
2013-3-28,71.1,61.0,55.8,59.5,48.6,42.1,93,65,42,29.83,29.59,13,4,13,0.04
2013-3-29,72.0,62.1,54.0,59.4,51.3,43.6,99,72,39,29.83,29.74,9,3,9,0.00
2013-3-30,77.0,66.4,57.2,60.0,47.6,39.5,100,56,29,29.77,29.59,26,6,26,0.00
2013-3-31,72.0,64.3,59.5,55.8,50.9,42.6,84,62,44,29.62,29.47,21,8,21,0.00
2013-4-1,73.6,64.0,54.7,58.8,46.2,35.5,100,58,27,29.68,29.53,19,5,19,0.00
2013-4-2,73.2,64.7,56.8,49.9,40.7,36.8,70,42,30,29.65,29.35,24,7,24,0.00
2013-4-3,72.1,64.2,58.1,60.9,45.1,35.4,100,53,27,29.44,29.20,24,10,24,0.00
2013-4-4,72.5,63.6,55.6,50.9,41.6,34.9,78,47,27,29.71,29.44,24,9,24,0.00
2013-4-5,72.3,63.9,55.9,47.8,41.3,34.3,58,44,27,29.71,29.53,32,9,32,0.00
2013-4-6,78.4,67.6,58.6,47.7,42.0,35.8,58,41,26,29.59,29.47,21,4,21,0.00
2013-4-7,77.0,66.0,60.3,61.8,46.3,37.8,93,50,33,29.47,29.06,29,9,29,0.00
2013-4-8,66.2,60.1,56.8,55.8,46.2,39.4,95,61,39,29.65,29.15,14,6,14,0.00
2013-4-9,71.1,62.0,53.6,49.9,44.1,37.1,80,54,30,29.77,29.65,15,5,15,0.00
2013-4-10,76.1,63.4,54.5,54.4,44.5,36.3,86,52,27,29.77,29.65,17,6,17,0.00
2013-4-11,61.7,59.3,56.8,50.9,43.6,39.5,69,56,48,29.80,29.68,8,3,8,0.00
2013-4-12,75.2,65.1,55.9,47.7,41.0,35.4,58,42,30,29.83,29.74,20,5,20,0.00
2013-4-13,80.8,65.9,57.7,44.6,40.2,35.8,50,40,25,29.88,29.80,15,4,17,0.00
2013-4-14,82.2,67.8,59.5,49.4,43.9,37.4,57,43,25,29.88,29.77,20,5,20,0.00
2013-4-15,68.7,61.2,55.8,40.4,36.2,29.9,54,40,28,29.85,29.74,24,9,24,0.00
2013-4-16,56.3,54.0,53.1,45.2,42.7,38.2,73,66,51,29.83,29.80,14,4,14,0.00
2013-4-17,61.0,58.9,57.6,27.3,25.8,24.7,28,28,27,29.85,29.83,12,5,12,0.00
2013-4-18,67.1,60.0,55.0,34.9,28.9,24.0,46,31,26,29.83,29.77,23,10,23,0.00
2013-4-19,67.8,58.6,51.4,44.0,31.6,27.0,62,37,28,29.77,29.65,23,7,23,0.00
2013-4-20,69.6,59.5,51.3,40.6,33.8,28.7,54,39,28,29.80,29.65,16,6,16,0.00
2013-4-21,77.0,64.3,55.9,42.0,35.4,30.5,47,35,26,29.80,29.71,18,5,18,0.00
2013-4-22,77.7,67.0,56.3,45.3,36.2,31.0,56,33,26,29.83,29.71,15,5,15,0.00
2013-4-23,76.5,65.8,56.7,46.8,39.6,35.1,57,39,26,30.00,29.83,15,4,15,0.00
2013-4-24,80.1,68.1,56.3,48.1,41.3,33.7,56,39,26,30.06,29.94,13,3,13,0.00
2013-4-25,80.4,67.9,61.5,45.3,40.1,25.6,53,37,25,30.03,29.91,12,2,12,0.00
2013-4-26,88.3,73.9,63.3,51.2,41.4,30.5,55,32,24,29.94,29.77,13,4,13,0.00
2013-4-27,85.3,73.7,62.2,45.1,38.5,31.6,46,28,24,29.77,29.65,20,5,20,0.00
2013-4-28,86.5,72.4,61.2,51.7,40.5,31.0,53,33,24,29.83,29.71,20,4,20,0.00
2013-4-29,86.0,73.1,61.9,49.9,40.3,28.7,53,32,24,29.88,29.80,15,3,15,0.00
2013-4-30,91.4,77.6,62.8,48.4,42.8,35.6,53,30,23,29.88,29.77,15,4,15,0.00
2013-5-1,91.9,80.4,68.2,48.8,42.4,35.5,34,26,23,29.83,29.71,21,6,21,0.00
2013-5-2,77.4,74.4,72.7,39.8,38.1,36.8,27,27,26,29.74,29.65,15,6,15,0.00
2013-5-19,69.3,69.3,69.3,49.8,49.8,49.8,50,50,50,29.44,29.44,5,0,0,0.00
2013-5-20,77.9,71.2,69.3,54.5,50.7,49.8,50,48,42,29.68,29.44,6,1,6,0.00
2013-5-21,93.6,81.3,72.7,58.1,51.6,45.0,59,38,22,29.71,29.59,16,4,16,0.00
2013-5-22,89.6,77.8,68.9,58.0,48.6,39.0,59,37,24,29.68,29.47,24,5,24,0.00
2013-5-23,87.6,78.4,69.4,58.4,48.0,38.2,55,36,24,29.50,29.35,32,9,32,0.00
2013-5-24,83.1,74.0,66.6,48.4,44.2,40.2,45,35,25,29.68,29.47,15,7,15,0.00
2013-5-25,82.0,72.8,65.1,54.2,46.6,40.2,57,40,25,29.71,29.65,19,7,19,0.00
2013-5-26,87.3,75.7,64.4,50.6,45.4,41.7,54,36,24,29.71,29.59,23,5,23,0.00
2013-5-27,84.0,73.0,63.5,44.1,38.7,32.1,37,29,25,29.77,29.65,15,6,15,0.00
2013-5-28,82.9,72.0,62.6,54.4,45.0,36.6,56,39,26,29.71,29.50,18,5,19,0.00
2013-5-29,90.7,77.5,66.6,58.4,48.2,35.8,66,37,23,29.50,29.32,25,8,25,0.00
2013-5-30,92.1,77.7,69.1,63.4,48.7,39.5,81,39,23,29.53,29.41,22,7,22,0.00
2013-5-31,84.2,75.4,68.0,53.8,43.7,35.0,58,33,24,29.56,29.41,23,8,23,0.00
2013-6-1,78.4,68.9,62.8,58.2,44.0,34.7,76,42,26,29.62,29.53,22,7,22,0.00
2013-6-2,82.0,71.5,63.0,57.6,46.7,37.8,82,44,25,29.59,29.44,24,7,24,0.00
2013-6-3,82.8,72.0,61.7,52.8,44.9,39.4,56,39,25,29.65,29.59,23,6,23,0.00
2013-6-4,87.4,74.8,64.9,59.4,48.9,41.9,73,42,24,29.68,29.59,20,6,20,0.00
2013-6-5,87.1,75.3,64.0,53.9,45.9,41.3,58,37,24,29.74,29.62,21,6,21,0.00
2013-6-6,86.9,75.6,66.2,57.1,49.1,42.6,54,40,25,29.80,29.68,23,5,23,0.00
2013-6-7,86.2,75.2,69.1,56.7,47.7,39.3,59,39,24,29.77,29.59,13,4,13,0.00
2013-6-8,90.7,77.7,68.7,56.0,50.4,44.2,59,40,23,29.62,29.56,17,4,17,0.00
2013-6-9,87.6,76.8,66.9,55.7,51.0,46.2,62,42,27,29.71,29.59,20,5,20,0.00
2013-6-10,88.3,78.7,67.8,52.6,49.3,44.7,53,37,26,29.74,29.59,23,6,23,0.00
2013-6-11,91.9,81.7,73.8,54.3,48.0,42.9,45,32,23,29.59,29.35,18,5,19,0.00
2013-6-12,89.2,75.6,66.7,56.4,47.8,40.9,62,38,26,29.53,29.41,13,5,13,0.00
2013-6-13,83.3,72.0,65.8,60.4,50.9,45.0,78,49,30,29.62,29.47,15,6,15,0.00
2013-6-14,74.8,70.3,66.9,59.3,51.5,48.7,76,52,42,29.68,29.59,10,3,10,0.00
2013-6-15,71.8,70.7,69.4,49.4,48.3,47.1,46,45,44,29.68,29.65,5,2,5,0.00
2013-6-18,96.4,87.5,76.6,52.6,48.7,43.2,38,27,22,29.77,29.65,22,8,22,0.00
2013-6-19,95.2,87.1,79.2,50.3,46.6,41.5,31,25,22,29.71,29.59,33,10,33,0.00
2013-6-20,98.1,88.3,80.2,52.7,47.1,41.5,33,24,22,29.71,29.59,24,9,24,0.00
2013-6-21,91.4,83.9,77.0,49.7,46.5,41.5,33,27,23,29.71,29.62,25,13,25,0.00
2013-6-22,99.0,86.5,73.8,53.0,46.5,39.2,34,25,21,29.68,29.59,24,8,24,0.00
2013-6-23,99.7,86.8,76.5,60.0,49.4,39.0,51,29,21,29.62,29.50,12,3,12,0.00
2013-6-24,99.5,86.5,75.7,57.9,51.6,43.5,49,32,21,29.59,29.50,16,4,16,0.00
2013-6-25,82.4,80.3,77.9,52.8,50.1,47.8,41,35,30,29.56,29.53,7,4,7,0.00
2013-6-26,98.1,84.8,73.9,61.7,52.0,47.1,54,34,22,29.62,29.53,18,6,18,0.00
2013-6-27,97.9,83.6,74.1,66.9,56.4,50.6,74,41,24,29.71,29.59,17,5,17,0.00
2013-6-28,97.2,82.3,73.2,68.8,55.7,49.3,81,42,24,29.71,29.62,16,5,16,0.00
2013-6-29,92.3,80.8,72.0,62.9,52.9,40.4,63,40,23,29.68,29.53,21,6,21,0.00
2013-6-30,90.5,79.3,71.2,53.4,45.9,39.7,47,32,23,29.62,29.53,21,8,21,0.00
2013-7-1,92.8,79.6,69.1,56.7,49.2,40.9,54,36,23,29.77,29.62,18,6,18,0.00
2013-7-2,92.7,80.9,70.9,55.4,48.4,43.5,54,34,23,29.80,29.71,17,5,17,0.00
2013-7-3,93.0,81.1,72.1,56.7,46.8,41.7,56,32,23,29.74,29.62,18,6,18,0.00
2013-7-4,93.7,82.4,72.1,52.9,44.2,38.4,33,26,22,29.71,29.59,28,7,28,0.00
2013-7-5,91.2,81.7,72.7,53.0,44.7,37.9,34,27,23,29.68,29.59,19,7,19,0.00
2013-7-6,90.0,82.2,75.4,56.1,49.6,45.5,45,33,23,29.68,29.59,22,9,22,0.00
2013-7-7,92.3,85.2,76.5,54.1,50.9,47.5,44,31,23,29.74,29.59,20,10,20,0.00
2013-7-8,97.7,86.3,77.4,52.4,48.0,43.7,33,27,22,29.74,29.65,20,9,20,0.00
2013-7-9,97.5,88.1,78.6,52.3,48.7,41.8,33,26,22,29.74,29.59,20,8,20,0.00
2013-7-10,97.7,85.5,77.4,55.7,51.3,45.2,45,32,22,29.62,29.47,20,6,20,0.00
2013-7-11,97.5,85.1,75.6,57.6,49.2,42.9,45,30,22,29.59,29.50,15,4,15,0.00
2013-7-12,79.0,78.5,77.5,54.1,49.6,46.4,44,36,33,29.59,29.59,5,2,5,0.00
2013-7-13,83.1,80.1,77.4,58.2,54.6,48.2,50,42,30,29.68,29.59,7,2,7,0.00
2013-7-14,80.2,77.5,76.5,59.2,54.7,46.4,53,46,31,29.68,29.65,9,2,10,0.00
2013-7-15,97.3,85.6,76.3,54.6,47.0,41.6,44,27,22,29.68,29.59,20,7,20,0.00
2013-7-16,93.9,83.7,74.7,56.6,46.8,41.5,50,28,22,29.68,29.59,15,6,15,0.00
2013-7-17,84.9,78.5,73.8,54.1,48.3,40.9,49,35,26,29.74,29.65,27,12,27,0.00
2013-7-18,88.3,80.3,73.8,51.1,45.9,41.8,44,31,24,29.77,29.71,26,12,26,0.00
2013-7-19,92.7,82.0,74.7,49.4,44.8,39.5,34,27,23,29.74,29.65,22,9,22,0.00
2013-7-20,95.4,83.9,73.6,50.5,45.5,40.9,34,27,22,29.68,29.53,18,7,18,0.00
2013-7-21,98.1,87.4,74.8,52.6,46.4,39.0,32,24,22,29.65,29.56,18,8,18,0.00
2013-7-22,88.7,81.5,75.9,54.9,49.1,41.2,47,33,24,29.65,29.59,25,11,25,0.00
2013-7-23,91.2,82.0,72.9,51.4,46.3,39.9,42,29,23,29.65,29.59,20,8,20,0.00
2013-7-24,99.9,87.3,74.7,53.0,45.8,37.9,27,24,21,29.68,29.59,17,6,17,0.00
2013-7-25,100.2,87.1,76.6,55.0,48.0,39.2,41,27,21,29.68,29.59,13,3,13,0.00
2013-7-26,100.9,88.6,77.2,58.3,49.0,40.5,42,26,21,29.65,29.56,14,4,14,0.00
2013-7-27,100.4,88.5,79.3,53.9,48.5,41.8,41,26,21,29.68,29.59,22,6,22,0.00
2013-7-28,97.2,87.8,78.6,51.8,47.2,42.1,33,25,22,29.77,29.65,19,7,19,0.00
2013-7-29,99.3,88.8,79.5,53.0,47.8,41.8,32,25,21,29.77,29.65,18,8,18,0.00
2013-7-30,101.7,90.8,77.9,60.2,51.2,41.5,45,27,21,29.71,29.47,16,4,16,0.00
2013-7-31,102.4,90.3,80.4,58.3,51.5,43.5,42,27,20,29.56,29.47,20,7,20,0.00
2013-8-1,93.6,86.1,80.8,57.7,50.8,43.4,41,30,22,29.71,29.53,23,9,23,0.00
2013-8-2,92.5,85.0,77.5,53.4,48.3,43.3,42,29,23,29.71,29.65,24,10,24,0.00
2013-8-3,94.8,86.6,78.8,50.0,47.4,42.3,34,26,22,29.71,29.65,26,10,26,0.00
2013-8-4,99.9,89.9,79.0,53.0,48.4,41.5,31,24,21,29.71,29.62,21,8,21,0.00
2013-8-5,92.1,84.6,77.7,50.0,45.5,41.5,31,26,23,29.71,29.65,23,11,23,0.00
2013-8-6,91.4,84.0,77.5,48.2,45.4,40.5,32,26,23,29.68,29.59,26,12,26,0.00
2013-8-7,93.4,85.1,78.3,49.7,45.7,42.0,31,26,22,29.68,29.59,28,11,28,0.00
2013-8-8,95.9,86.7,79.2,50.9,46.0,41.3,31,25,22,29.71,29.62,28,12,28,0.00
2013-8-9,97.5,87.9,79.0,52.3,47.8,43.3,32,25,22,29.68,29.53,22,9,22,0.00
2013-8-10,100.8,85.9,75.6,67.7,52.2,42.3,73,34,21,29.59,29.38,14,5,14,0.00
2013-8-11,93.4,83.9,76.1,68.7,52.8,42.4,77,38,22,29.59,29.41,21,7,21,0.00
2013-8-12,94.3,86.3,77.7,51.7,47.4,42.6,34,26,22,29.68,29.59,22,9,22,0.00
2013-8-13,97.9,87.4,77.7,52.6,47.3,42.3,31,25,22,29.68,29.59,20,7,20,0.00
2013-8-14,99.5,89.0,79.0,53.0,47.8,41.5,31,24,21,29.65,29.53,22,7,22,0.00
2013-8-15,82.8,80.7,78.4,44.3,43.0,41.5,29,26,25,29.59,29.53,10,2,10,0.00
2013-8-18,90.5,83.5,80.6,47.9,43.6,41.5,25,25,23,29.71,29.65,13,7,13,0.00
2013-8-19,97.3,86.4,76.6,52.1,46.1,39.5,31,25,22,29.71,29.59,24,8,24,0.00
2013-8-20,101.7,86.7,75.6,54.4,47.2,41.8,35,26,21,29.65,29.56,20,8,20,0.00
2013-8-21,92.8,84.1,78.1,52.4,46.8,40.4,39,28,23,29.65,29.59,21,9,21,0.00
2013-8-22,92.7,82.5,75.4,53.4,50.0,45.3,42,33,23,29.65,29.56,18,8,18,0.00
2013-8-23,95.2,84.0,75.7,52.9,47.8,40.5,43,29,22,29.68,29.59,18,6,18,0.00
2013-8-24,95.9,84.0,74.7,50.9,45.4,39.0,41,26,22,29.71,29.59,17,4,17,0.00
2013-8-25,94.1,83.6,74.8,57.7,48.6,39.8,46,30,22,29.65,29.59,16,4,16,0.00
2013-8-26,98.2,84.2,74.5,62.2,49.4,43.9,42,31,22,29.65,29.59,15,4,15,0.00
2013-8-27,99.3,86.9,75.6,58.2,51.8,43.5,50,31,21,29.65,29.59,16,4,16,0.00
2013-8-28,103.3,88.3,77.7,59.2,54.0,48.3,49,33,20,29.65,29.56,13,4,13,0.00
2013-8-29,80.2,80.2,80.1,60.5,59.3,58.2,51,49,47,29.65,29.65,4,1,4,0.00
2013-8-30,99.5,85.0,78.1,68.1,54.9,48.0,69,38,21,29.68,29.59,17,5,17,0.00
2013-8-31,92.5,81.9,75.9,67.1,48.6,42.6,69,32,23,29.77,29.65,21,7,21,0.00
2013-9-1,93.4,81.2,72.5,55.1,45.2,38.4,53,29,22,29.80,29.71,18,7,18,0.00
2013-9-2,96.1,81.2,72.0,50.8,44.2,36.1,39,28,22,29.83,29.74,22,6,22,0.00
2013-9-3,91.6,80.5,71.4,59.3,51.1,44.4,51,37,25,29.83,29.71,20,4,20,0.00
2013-9-4,88.7,79.1,72.7,51.5,47.9,41.7,43,34,24,29.85,29.74,21,9,21,0.00
2013-9-5,91.2,77.7,69.1,48.2,43.2,36.6,40,30,23,29.88,29.71,17,6,17,0.00
2013-9-6,91.1,78.5,70.0,56.5,50.8,44.4,49,39,28,29.77,29.62,20,4,20,0.00
2013-9-7,84.9,77.0,72.3,58.6,54.6,47.6,54,46,37,29.80,29.65,8,2,8,0.00
2013-9-8,95.4,80.2,70.2,57.7,47.4,37.8,55,33,22,29.88,29.77,20,6,20,0.00
2013-9-9,88.3,78.1,71.2,50.2,42.6,36.3,46,29,24,29.91,29.83,18,8,18,0.00
2013-9-10,85.8,76.0,75.0,53.9,50.4,44.8,45,41,24,29.80,29.77,9,1,9,0.00
2013-9-11,92.5,81.5,72.1,60.7,52.1,42.2,47,37,28,29.80,29.71,13,4,13,0.00
2013-9-12,80.2,79.1,78.1,53.7,52.2,51.0,41,39,37,29.74,29.71,6,3,6,0.00
2013-9-16,78.3,78.3,78.3,52.0,52.0,52.0,40,40,40,29.71,29.71,1,0,1,0.00
2013-9-17,78.3,78.3,78.3,52.0,52.0,52.0,40,40,40,29.71,29.71,1,0,1,0.00
2013-9-18,78.3,78.3,78.3,52.0,52.0,52.0,40,40,40,29.71,29.71,1,0,1,0.00
2013-9-19,78.3,77.8,73.4,56.9,52.3,52.0,55,41,40,29.71,29.50,12,1,12,0.00
2013-9-20,91.2,77.5,69.6,59.9,52.7,45.6,63,44,23,29.71,29.50,14,5,14,0.00
2013-9-21,87.8,75.2,69.8,60.8,52.2,46.4,71,47,26,29.80,29.68,15,7,15,0.00
2013-9-22,81.5,71.6,67.3,50.0,44.0,38.6,46,37,25,29.83,29.77,18,7,18,0.00
2013-9-23,83.7,71.6,64.4,46.9,41.8,37.8,49,35,25,29.80,29.68,15,6,15,0.00
2013-9-24,85.5,73.5,64.8,53.1,46.1,38.2,53,39,24,29.71,29.65,16,4,16,0.00
2013-9-25,88.0,75.5,65.8,66.7,54.2,47.2,83,50,26,29.80,29.68,17,5,17,0.00
2013-9-26,88.0,76.3,67.3,74.2,59.6,45.0,100,62,24,29.80,29.65,12,4,12,0.00
2013-9-27,89.1,77.5,66.9,62.8,53.0,44.7,72,45,24,29.71,29.59,15,5,15,0.00
2013-9-28,88.3,76.5,67.6,61.4,53.0,46.8,66,45,27,29.71,29.65,15,4,15,0.00
2013-9-29,88.7,77.4,69.4,59.3,53.1,45.1,63,44,30,29.71,29.62,18,4,18,0.00
2013-9-30,86.4,77.1,68.9,75.0,61.5,48.7,99,61,39,29.68,29.41,29,6,29,0.00
2013-10-1,83.3,74.0,66.4,76.3,64.1,49.7,100,76,38,29.47,29.29,25,6,25,0.33
2013-10-2,83.3,69.4,61.5,60.8,52.7,45.2,80,57,30,29.71,29.38,24,8,24,0.00
2013-10-3,66.2,59.8,58.3,58.2,49.8,38.4,99,72,46,30.00,29.71,20,9,20,0.08
2013-10-4,67.3,58.8,56.3,41.7,37.7,33.9,55,46,34,30.12,29.97,20,10,20,0.00
2013-10-5,70.0,59.6,54.1,39.4,36.2,32.7,52,43,28,30.09,29.97,21,9,21,0.00
2013-10-6,70.3,60.9,55.4,42.3,37.7,34.5,56,43,28,30.06,29.94,17,8,17,0.00
2013-10-7,75.7,63.6,55.2,43.4,39.4,34.9,64,43,26,30.09,30.00,15,6,15,0.00
2013-10-8,78.1,64.2,59.7,41.5,39.9,37.9,47,42,26,30.06,30.00,13,4,13,0.00
2013-10-10,77.0,67.3,61.3,57.3,52.2,39.2,74,62,26,30.03,29.83,5,3,5,0.00
2013-10-11,87.1,73.4,63.7,62.7,51.9,36.4,77,53,19,29.94,29.83,13,4,13,0.00
2013-10-12,88.7,80.1,69.4,69.1,53.5,39.0,88,48,18,30.00,29.88,9,3,9,0.00
2013-10-13,85.3,74.5,66.6,68.1,54.1,41.8,90,55,23,29.94,29.88,11,4,11,0.00
2013-10-14,71.2,69.3,68.2,55.7,44.9,39.2,64,42,33,29.94,29.88,6,1,6,0.00
2013-10-15,83.7,72.4,65.7,62.9,49.2,40.5,76,46,24,29.91,29.71,13,3,13,0.00
2013-10-16,73.4,70.2,64.9,68.3,59.8,43.3,91,71,35,29.77,29.35,25,5,25,0.17
2013-10-17,73.6,67.1,60.6,65.4,40.0,20.3,87,43,16,29.50,29.29,30,10,30,0.00
2013-10-18,79.7,68.1,59.7,50.3,34.0,25.2,59,30,15,29.80,29.50,15,4,15,0.00
2013-10-19,81.7,69.4,63.3,50.0,28.3,19.9,60,23,14,30.09,29.77,15,6,15,0.13
2013-10-20,77.0,66.7,61.5,40.8,31.9,23.0,46,29,15,30.18,30.06,15,8,15,0.91
2013-10-21,78.4,66.2,57.4,51.9,31.3,22.7,69,29,15,30.09,29.94,11,4,11,0.00
2013-10-22,78.8,67.5,58.8,54.8,45.6,34.4,80,50,21,29.94,29.85,10,4,10,0.00
2013-10-23,82.8,70.2,59.9,44.6,34.3,26.7,53,29,14,29.94,29.88,20,6,20,0.00
2013-10-24,79.2,70.1,63.1,43.5,30.9,20.2,47,25,15,29.97,29.88,18,7,18,0.00
2013-10-25,80.1,66.8,57.9,45.0,30.5,20.0,49,27,15,29.94,29.83,16,5,16,0.00
2013-10-26,79.3,66.1,55.9,38.7,23.0,12.7,37,20,15,29.94,29.85,14,4,14,0.00
2013-10-27,82.0,67.2,56.8,45.4,25.4,12.4,54,22,14,29.94,29.83,10,3,10,0.00
2013-10-28,79.2,67.0,58.5,53.0,43.0,30.1,73,45,18,29.88,29.80,10,4,10,0.00
2013-10-29,79.9,67.6,59.2,53.6,44.0,34.5,71,45,21,29.83,29.74,8,3,8,0.00
2013-10-30,80.1,68.5,60.4,53.1,42.3,34.5,66,41,21,29.83,29.77,11,4,11,0.00
2013-10-31,81.9,69.6,61.2,39.2,31.5,23.3,38,26,14,29.91,29.83,15,4,15,0.00
2013-11-1,77.5,66.9,60.1,41.2,35.0,28.0,46,32,18,29.94,29.88,18,6,18,0.00
2013-11-2,75.7,64.5,56.8,51.9,38.1,31.1,71,40,21,29.94,29.83,10,3,10,0.00
2013-11-3,77.0,66.7,59.7,62.8,54.3,39.8,91,69,27,29.85,29.77,12,4,12,0.00
2013-11-4,79.2,68.3,61.7,65.3,56.2,33.5,92,71,24,29.83,29.71,16,4,16,0.00
2013-11-5,76.8,69.3,63.9,63.3,55.2,36.0,92,64,23,29.71,29.47,37,10,37,0.00
2013-11-6,69.6,64.1,59.7,63.1,57.6,47.1,96,80,49,29.50,29.35,32,9,32,0.88
2013-11-7,71.6,65.5,60.4,58.7,38.9,15.4,87,45,15,29.88,29.44,24,8,24,0.00
2013-11-8,76.6,65.6,58.6,40.8,32.4,17.5,48,30,18,29.91,29.83,9,3,9,0.00
2013-11-9,77.4,65.4,58.3,56.4,40.4,31.5,85,43,20,29.88,29.77,9,3,9,0.00
2013-11-10,75.9,65.7,58.5,62.3,54.1,41.7,91,70,31,29.80,29.62,11,4,11,0.00
2013-11-11,72.5,67.1,62.2,67.5,63.1,58.9,100,88,66,29.77,29.44,26,8,26,1.26
2013-11-12,75.7,68.4,64.2,66.4,61.4,49.7,100,81,43,29.88,29.74,18,6,18,0.00
2013-11-13,71.4,64.7,61.0,61.8,51.6,44.7,92,64,41,29.88,29.71,24,9,24,0.08
2013-11-14,62.1,60.7,58.8,59.0,56.0,52.6,100,85,73,29.77,29.68,30,10,30,0.29
2013-11-15,60.6,59.3,58.3,47.9,44.4,39.5,68,58,46,29.88,29.83,16,8,16,0.00
2013-11-16,61.5,57.9,56.7,49.7,41.7,36.2,74,55,45,29.94,29.85,16,8,16,0.00
2013-11-17,67.8,58.0,52.3,41.8,35.4,30.7,57,44,28,29.94,29.85,20,7,20,0.00
2013-11-18,66.9,57.3,51.6,41.0,36.4,33.4,59,46,31,29.94,29.83,18,6,18,0.00
2013-11-19,71.4,60.8,53.6,53.7,40.8,35.4,74,49,30,29.91,29.77,12,4,12,0.00
2013-11-20,72.0,65.2,60.3,68.2,61.2,53.1,100,88,73,29.80,29.62,21,7,21,1.25
2013-11-21,72.9,64.3,57.4,62.2,55.0,43.9,100,75,37,29.68,29.53,32,7,32,0.21
2013-11-22,70.9,61.5,56.7,61.3,50.2,39.0,100,71,35,29.59,29.47,11,3,11,0.05
2013-11-23,70.9,63.5,57.6,54.8,49.6,40.5,87,62,43,29.59,29.50,24,7,24,0.00
2013-11-24,66.6,61.2,57.6,63.0,55.9,43.2,100,84,52,29.56,29.47,39,8,39,0.74
2013-11-25,71.4,60.9,56.3,48.7,43.0,35.3,70,53,30,29.53,29.47,10,3,10,0.00
2013-11-26,70.2,59.2,55.0,54.3,47.3,35.4,93,67,31,29.56,29.47,12,3,12,0.08
2013-11-27,63.9,56.9,52.0,52.3,36.2,25.6,88,50,26,29.97,29.53,18,6,18,0.00
2013-11-28,62.6,54.1,48.4,36.0,29.0,23.5,57,39,26,30.09,29.94,15,5,15,0.00
2013-11-29,65.7,54.6,46.9,40.2,33.2,27.1,60,45,26,29.97,29.83,9,3,9,0.00
2013-11-30,58.5,55.9,53.4,45.4,39.4,32.7,70,54,44,29.91,29.77,20,10,20,0.05
2013-12-1,65.5,61.4,55.8,61.3,53.7,43.5,98,76,56,29.83,29.65,31,13,31,0.08
2013-12-2,68.2,61.9,57.7,63.5,58.7,52.6,100,90,65,29.88,29.71,22,8,22,0.63
2013-12-3,58.8,50.8,44.6,53.5,38.0,27.8,89,63,44,29.97,29.83,38,17,38,0.00
2013-12-4,49.8,45.4,41.5,42.5,33.5,25.9,97,66,43,29.94,29.83,20,6,20,0.08
2013-12-5,63.5,50.0,39.9,36.2,26.5,17.2,72,43,24,29.88,29.80,7,3,7,0.00
2013-12-6,66.0,53.3,45.3,40.3,28.0,15.7,61,38,30,29.85,29.65,7,3,7,0.00
2013-12-7,65.7,53.8,48.4,52.0,35.7,17.7,84,53,32,30.00,29.59,15,5,15,0.00
2013-12-8,57.7,48.7,42.1,26.5,18.8,13.6,44,31,25,30.18,30.00,14,4,14,0.00
2013-12-9,63.0,51.8,43.3,37.2,22.9,13.1,53,33,24,30.18,29.97,17,3,17,0.00
2013-12-10,64.8,53.9,45.1,40.1,30.9,22.1,75,44,23,30.12,29.85,30,10,30,0.00
2013-12-11,47.8,42.6,38.3,24.3,14.8,11.0,44,32,27,30.30,30.12,28,10,28,0.00
2013-12-12,53.1,45.3,37.4,29.4,21.2,13.5,51,39,26,30.21,30.00,15,4,15,0.00
2013-12-13,52.9,47.8,45.0,37.7,33.1,29.2,74,57,44,30.03,29.91,10,4,10,0.00
2013-12-14,62.6,51.6,43.7,43.3,33.9,28.2,78,52,32,30.15,29.94,7,3,7,0.00
2013-12-15,68.4,56.7,49.8,53.9,43.7,33.5,94,65,32,30.15,30.06,8,3,8,0.00
2013-12-16,59.4,53.8,49.5,49.7,39.4,29.0,82,59,38,30.15,30.06,22,9,22,0.00
2013-12-17,54.1,49.3,45.7,33.4,29.6,23.4,57,47,36,30.21,30.12,21,10,21,0.00
2013-12-18,54.9,47.9,44.2,33.7,31.1,27.1,63,53,36,30.12,29.97,27,9,27,0.00
2013-12-19,58.5,49.1,45.5,43.0,32.3,25.2,89,54,33,30.06,29.97,21,6,21,0.00
2013-12-20,62.1,50.5,44.1,37.6,29.5,24.1,69,46,27,30.21,30.06,8,4,8,0.00
2013-12-21,63.5,52.1,45.5,48.6,37.9,31.6,85,61,32,30.27,30.18,7,3,7,0.00
2013-12-22,64.8,51.6,43.2,38.9,28.3,18.6,72,42,23,30.30,30.12,13,4,13,0.00
2013-12-23,62.1,51.8,44.1,38.3,32.8,26.9,62,49,30,30.15,30.06,12,4,12,0.00
2013-12-24,56.3,52.8,50.2,42.2,37.4,33.8,63,56,45,30.09,29.94,17,6,17,0.00
2013-12-25,64.8,58.1,54.9,44.4,41.6,37.0,66,55,38,29.97,29.83,21,9,21,0.00
2013-12-26,67.3,59.0,53.6,59.5,51.2,40.5,98,77,42,29.85,29.65,22,6,22,0.00
2013-12-27,60.6,56.9,53.1,59.5,55.8,52.8,100,96,78,29.68,29.56,29,9,29,0.88
2013-12-28,61.0,55.5,53.1,54.6,49.6,33.1,100,82,43,29.74,29.59,24,10,24,0.04
2013-12-29,66.6,55.4,48.7,43.3,37.0,30.3,76,52,29,29.88,29.71,12,3,12,0.00
2013-12-30,65.8,55.1,47.7,38.2,33.3,28.7,57,45,28,29.91,29.83,12,4,12,0.00
2013-12-31,54.1,50.6,47.7,37.0,34.3,31.6,60,54,44,29.97,29.88,18,8,18,0.00
2014-1-1,51.8,49.1,47.3,50.5,40.1,29.9,100,74,48,29.94,29.83,14,4,14,0.46
2014-1-2,61.7,53.1,48.7,51.1,40.7,33.0,100,66,39,29.91,29.83,14,4,14,0.08